Time;durP1;ratioP1;P1;durP2;ratioP2;P2;SDS_P1;SDS_P2;PMS_P1;PMS_P2;Temp;Humidity;BMP_temperature;BMP_pressure;BME280_temperature;BME280_humidity;BME280_pressure;Samples;Min_cycle;Max_cycle;Signal;HPM_P1;HPM_P2
2021/12/10 00:00:01;;;;;;;15.63;9.90;;;;;;;7.35;91.41;95765.19;5134991;27;20481;-31
2021/12/10 00:02:34;;;;;;;27.53;9.10;;;;;;;7.33;91.62;95762.00;5134776;27;20448;-31
2021/12/10 00:05:02;;;;;;;17.20;9.33;;;;;;;7.24;91.77;95767.94;5134781;27;20516;-31
2021/12/10 00:07:30;;;;;;;25.30;10.37;;;;;;;7.05;93.00;95754.16;5134458;27;20936;-29
2021/12/10 00:10:00;;;;;;;21.90;10.90;;;;;;;7.07;94.42;95749.44;5134637;27;20441;-30
2021/12/10 00:12:30;;;;;;;6.97;5.53;;;;;;;7.26;93.98;95750.81;5134723;27;20425;-31
2021/12/10 00:15:00;;;;;;;10.77;7.70;;;;;;;7.22;92.65;95747.03;5134575;27;20433;-32
2021/12/10 00:17:27;;;;;;;13.70;7.70;;;;;;;7.33;92.15;95769.91;5134929;27;20445;-31
2021/12/10 00:19:58;;;;;;;12.73;7.40;;;;;;;7.20;92.70;95730.63;5134778;27;20984;-30
2021/12/10 00:22:34;;;;;;;10.13;6.73;;;;;;;7.16;94.15;95740.06;5134563;27;20428;-31
2021/12/10 00:25:01;;;;;;;37.17;12.90;;;;;;;7.15;94.03;95754.34;5134572;27;20425;-31
2021/12/10 00:27:31;;;;;;;16.90;11.57;;;;;;;7.12;93.81;95760.06;5134397;27;20434;-31
2021/12/10 00:30:07;;;;;;;17.27;8.37;;;;;;;7.05;93.82;95748.88;5134332;27;20512;-31
2021/12/10 00:32:39;;;;;;;23.50;11.27;;;;;;;7.03;94.01;95756.22;5134403;27;20500;-31
2021/12/10 00:35:12;;;;;;;19.60;10.27;;;;;;;7.02;94.74;95775.75;5134416;27;20926;-31
2021/12/10 00:37:39;;;;;;;21.00;10.50;;;;;;;6.97;94.96;95792.31;5134732;27;20422;-31
2021/12/10 00:40:10;;;;;;;19.37;10.67;;;;;;;6.93;94.64;95768.22;5134531;27;20496;-31
2021/12/10 00:42:38;;;;;;;31.93;14.60;;;;;;;6.80;95.05;95752.69;5134584;27;20795;-31
2021/12/10 00:45:10;;;;;;;18.07;10.17;;;;;;;6.91;95.33;95764.22;5135104;27;20457;-31
2021/12/10 00:47:39;;;;;;;13.57;8.10;;;;;;;6.93;95.58;95757.69;5134242;27;20927;-30
2021/12/10 00:50:10;;;;;;;8.43;6.40;;;;;;;6.94;95.86;95748.69;5134564;27;20468;-31
2021/12/10 00:52:37;;;;;;;14.23;8.37;;;;;;;6.96;95.43;95741.34;5134486;27;20445;-29
2021/12/10 00:55:05;;;;;;;19.53;8.37;;;;;;;6.92;95.59;95729.66;5134232;27;20445;-32
2021/12/10 00:57:33;;;;;;;10.70;6.60;;;;;;;6.87;96.26;95726.97;5134201;27;20449;-31
2021/12/10 01:00:00;;;;;;;18.63;6.80;;;;;;;6.86;97.08;95706.91;5134363;27;20480;-32
2021/12/10 01:02:29;;;;;;;9.27;5.63;;;;;;;6.84;97.12;95711.63;5134126;27;20439;-32
2021/12/10 01:04:59;;;;;;;10.00;5.50;;;;;;;6.94;96.84;95695.94;5134097;27;20455;-33
2021/12/10 01:07:36;;;;;;;8.63;4.70;;;;;;;6.82;96.87;95658.28;5134362;27;20463;-32
2021/12/10 01:10:08;;;;;;;12.03;7.87;;;;;;;6.98;96.67;95673.31;5134087;27;20901;-32
2021/12/10 01:12:40;;;;;;;5.53;5.00;;;;;;;7.04;97.50;95673.41;5134412;27;20422;-31
2021/12/10 01:15:35;;;;;;;8.97;6.63;;;;;;;7.35;94.57;95688.63;5134058;27;20422;-32
2021/12/10 01:23:50;;;;;;;14.87;7.00;;;;;;;7.29;93.45;95702.81;5138080;27;20826;-32
2021/12/10 01:26:37;;;;;;;10.97;5.93;;;;;;;7.20;94.37;95704.25;5138085;27;20424;-33
2021/12/10 01:29:05;;;;;;;11.50;7.40;;;;;;;7.18;94.80;95701.88;5137539;27;20471;-31
2021/12/10 01:31:33;;;;;;;8.70;4.33;;;;;;;6.98;95.01;95660.09;5137620;27;20950;-32
2021/12/10 01:34:02;;;;;;;10.67;5.50;;;;;;;7.16;95.54;95692.56;5137639;27;20448;-33
2021/12/10 01:36:29;;;;;;;12.40;7.50;;;;;;;7.03;95.61;95692.91;5137875;27;20440;-32
2021/12/10 01:38:57;;;;;;;10.87;8.87;;;;;;;7.02;95.21;95701.88;5137747;27;20521;-32
2021/12/10 01:41:33;;;;;;;27.43;15.27;;;;;;;6.98;95.65;95712.88;5137832;27;20444;-32
2021/12/10 01:44:11;;;;;;;24.93;10.90;;;;;;;6.94;96.33;95680.09;5137880;27;20425;-32
2021/12/10 01:46:40;;;;;;;14.53;8.17;;;;;;;6.95;97.94;95686.19;5137764;27;20505;-33
2021/12/10 01:49:12;;;;;;;16.80;8.73;;;;;;;6.92;98.49;95708.56;5137739;27;20436;-31
2021/12/10 01:51:42;;;;;;;13.63;7.90;;;;;;;6.81;98.04;95658.53;5137364;27;20430;-29
2021/12/10 01:54:17;;;;;;;12.93;7.53;;;;;;;6.97;98.76;95634.78;5137602;27;20782;-30
2021/12/10 01:56:45;;;;;;;10.20;5.90;;;;;;;6.89;100.00;95629.91;5137256;27;20428;-29
2021/12/10 01:59:15;;;;;;;7.37;5.53;;;;;;;7.12;100.00;95654.50;5137129;27;20445;-31
2021/12/10 02:01:46;;;;;;;7.77;6.13;;;;;;;7.26;100.00;95645.19;5137712;27;20459;-32
2021/12/10 02:04:18;;;;;;;20.27;11.07;;;;;;;7.33;100.00;95650.31;5137153;27;20432;-31
2021/12/10 02:06:46;;;;;;;28.97;15.80;;;;;;;7.26;99.74;95618.78;5137080;27;20429;-30
2021/12/10 02:09:13;;;;;;;22.00;9.93;;;;;;;7.19;98.64;95591.78;5136951;27;20441;-30
2021/12/10 02:11:41;;;;;;;18.30;9.20;;;;;;;7.21;98.22;95629.31;5136963;27;20928;-30
2021/12/10 02:14:09;;;;;;;21.00;11.27;;;;;;;7.18;98.29;95661.44;5136806;27;20942;-30
2021/12/10 02:16:37;;;;;;;19.70;10.77;;;;;;;7.10;98.04;95662.66;5137147;27;20437;-31
2021/12/10 02:19:05;;;;;;;11.97;7.90;;;;;;;6.95;98.46;95643.97;5136721;27;20520;-32
2021/12/10 02:21:36;;;;;;;17.40;7.87;;;;;;;7.06;98.75;95635.16;5136950;27;20480;-31
2021/12/10 02:24:05;;;;;;;17.27;7.50;;;;;;;7.07;100.00;95642.03;5136670;27;20437;-30
2021/12/10 02:26:35;;;;;;;17.97;8.20;;;;;;;7.13;100.00;95635.78;5136616;27;20437;-32
2021/12/10 02:29:04;;;;;;;40.07;18.80;;;;;;;7.18;100.00;95629.78;5136369;27;20483;-32
2021/12/10 02:31:32;;;;;;;58.43;32.20;;;;;;;7.18;100.00;95627.94;5136459;27;20437;-31
2021/12/10 02:34:01;;;;;;;32.17;20.60;;;;;;;7.16;100.00;95616.00;5136446;27;20445;-30
2021/12/10 02:36:29;;;;;;;29.53;16.33;;;;;;;7.12;100.00;95606.97;5136373;27;20528;-31
2021/12/10 02:38:59;;;;;;;22.90;10.27;;;;;;;7.12;100.00;95613.09;5136689;27;20441;-30
2021/12/10 02:41:29;;;;;;;18.73;12.53;;;;;;;7.09;100.00;95641.78;5136227;27;21006;-31
2021/12/10 02:43:57;;;;;;;17.60;8.33;;;;;;;7.06;100.00;95639.66;5136555;27;20445;-29
2021/12/10 02:46:24;;;;;;;24.80;14.23;;;;;;;7.02;100.00;95633.25;5136232;27;20437;-31
2021/12/10 02:48:52;;;;;;;21.10;9.97;;;;;;;6.86;99.88;95614.56;5136464;27;20437;-31
2021/12/10 02:51:19;;;;;;;21.57;11.20;;;;;;;7.06;100.00;95618.53;5136421;27;20445;-31
2021/12/10 02:53:46;;;;;;;15.30;9.63;;;;;;;7.10;100.00;95607.25;5136376;27;20507;-30
2021/12/10 02:56:17;;;;;;;13.70;9.10;;;;;;;7.21;100.00;95605.53;5136045;27;20433;-31
2021/12/10 02:58:46;;;;;;;13.53;8.93;;;;;;;7.27;100.00;95606.38;5136272;27;20488;-31
2021/12/10 03:01:18;;;;;;;12.90;7.73;;;;;;;7.23;100.00;95606.09;5136163;27;20491;-29
2021/12/10 03:03:45;;;;;;;20.33;10.37;;;;;;;7.22;100.00;95619.53;5135906;27;20425;-30
2021/12/10 03:06:14;;;;;;;21.27;11.13;;;;;;;7.15;98.94;95615.22;5135856;27;20448;-31
2021/12/10 03:08:44;;;;;;;14.07;9.73;;;;;;;7.02;96.70;95614.78;5135773;27;20529;-31
2021/12/10 03:11:14;;;;;;;15.60;8.90;;;;;;;6.84;97.13;95616.63;5135748;27;20421;-29
2021/12/10 03:13:42;;;;;;;18.70;11.20;;;;;;;6.86;96.72;95609.28;5135667;27;20449;-30
2021/12/10 03:16:11;;;;;;;21.67;11.47;;;;;;;6.84;96.65;95605.25;5135938;27;20827;-30
2021/12/10 03:18:39;;;;;;;16.00;10.13;;;;;;;6.82;98.24;95608.16;5135542;27;20447;-32
2021/12/10 03:21:09;;;;;;;33.33;9.37;;;;;;;6.86;99.47;95614.56;5135464;27;20488;-29
2021/12/10 03:23:42;;;;;;;19.33;9.67;;;;;;;6.87;100.00;95624.06;5135829;27;20441;-31
2021/12/10 03:26:10;;;;;;;16.90;10.83;;;;;;;6.87;98.45;95613.50;5135509;27;20919;-31
2021/12/10 03:28:38;;;;;;;23.63;10.80;;;;;;;6.79;97.63;95608.63;5135458;27;20548;-32
2021/12/10 03:31:08;;;;;;;13.37;8.90;;;;;;;6.71;97.40;95604.56;5135370;27;20449;-32
2021/12/10 03:33:36;;;;;;;22.30;10.50;;;;;;;6.77;99.04;95610.69;5135672;27;20457;-32
2021/12/10 03:36:04;;;;;;;13.00;7.90;;;;;;;6.81;100.00;95598.63;5135660;27;20463;-32
2021/12/10 03:38:32;;;;;;;19.53;9.33;;;;;;;6.84;100.00;95590.25;5135252;27;20969;-32
2021/12/10 03:40:59;;;;;;;18.47;10.73;;;;;;;6.82;100.00;95592.34;5134816;27;20493;-32
2021/12/10 03:43:27;;;;;;;18.07;10.77;;;;;;;6.77;100.00;95589.59;5135163;27;20442;-32
2021/12/10 03:45:58;;;;;;;20.10;10.53;;;;;;;6.71;100.00;95598.47;5135503;27;20464;-32
2021/12/10 03:48:30;;;;;;;23.77;13.17;;;;;;;6.69;100.00;95595.28;5135425;27;20436;-32
2021/12/10 03:50:59;;;;;;;17.70;11.00;;;;;;;6.68;99.35;95606.88;5135086;27;20430;-32
2021/12/10 03:53:26;;;;;;;16.63;10.47;;;;;;;6.66;98.95;95596.56;5134955;27;20441;-32
2021/12/10 03:55:59;;;;;;;20.97;10.80;;;;;;;6.64;97.95;95590.72;5135196;27;20437;-32
2021/12/10 03:58:26;;;;;;;23.00;12.20;;;;;;;6.59;97.58;95593.28;5134929;27;20795;-32
2021/12/10 04:00:57;;;;;;;21.23;9.90;;;;;;;6.64;97.87;95617.09;5134722;27;20473;-32
2021/12/10 04:03:27;;;;;;;27.17;9.70;;;;;;;6.62;99.06;95618.38;5135386;27;20429;-32
2021/12/10 04:05:57;;;;;;;16.60;10.40;;;;;;;6.48;96.28;95602.88;5134782;27;20905;-32
2021/12/10 04:08:25;;;;;;;21.80;12.87;;;;;;;6.39;96.39;95599.03;5134716;27;20448;-33
2021/12/10 04:10:54;;;;;;;29.97;13.30;;;;;;;6.37;97.98;95595.84;5134617;27;20773;-32
2021/12/10 04:13:22;;;;;;;25.60;11.67;;;;;;;6.41;99.34;95596.16;5134669;27;20921;-33
2021/12/10 04:15:50;;;;;;;27.70;14.27;;;;;;;6.46;100.00;95591.78;5134942;27;20441;-32
2021/12/10 04:18:18;;;;;;;21.30;12.37;;;;;;;6.48;100.00;95604.72;5134888;27;20982;-32
2021/12/10 04:20:47;;;;;;;22.00;12.07;;;;;;;6.33;98.71;95606.06;5134484;27;20488;-32
2021/12/10 04:23:19;;;;;;;20.07;13.20;;;;;;;6.32;98.23;95607.13;5134833;27;20445;-32
2021/12/10 04:25:47;;;;;;;34.67;17.67;;;;;;;6.17;99.33;95600.75;5135383;27;20434;-32
2021/12/10 04:28:17;;;;;;;25.30;14.30;;;;;;;6.14;100.00;95610.75;5134542;27;20495;-33
2021/12/10 04:30:46;;;;;;;17.93;11.23;;;;;;;6.12;100.00;95607.53;5134599;27;20426;-32
2021/12/10 04:33:17;;;;;;;30.23;13.40;;;;;;;6.11;98.54;95619.13;5134473;27;20490;-32
2021/12/10 04:35:45;;;;;;;20.03;12.30;;;;;;;6.03;99.10;95616.88;5134484;27;20429;-30
2021/12/10 04:38:16;;;;;;;23.00;11.10;;;;;;;6.00;99.09;95617.34;5134421;27;20520;-31
2021/12/10 04:40:46;;;;;;;14.63;10.40;;;;;;;6.00;99.02;95617.34;5134303;27;20999;-29
2021/12/10 04:43:14;;;;;;;27.87;12.30;;;;;;;6.02;99.06;95612.63;5134684;27;20452;-31
2021/12/10 04:45:41;;;;;;;41.87;22.20;;;;;;;5.98;99.25;95618.59;5134247;27;20441;-30
2021/12/10 04:48:09;;;;;;;26.20;16.43;;;;;;;6.01;99.01;95616.31;5134554;27;20441;-31
2021/12/10 04:50:36;;;;;;;27.50;16.93;;;;;;;5.88;99.47;95635.78;5134275;27;20444;-31
2021/12/10 04:53:07;;;;;;;27.60;13.70;;;;;;;5.75;99.73;95647.41;5137289;27;20443;-31
2021/12/10 04:55:37;;;;;;;15.03;9.40;;;;;;;5.51;99.21;95665.09;5138388;27;20436;-32
2021/12/10 04:58:05;;;;;;;20.27;11.53;;;;;;;5.41;99.90;95651.72;5138345;27;20798;-30
2021/12/10 05:00:36;;;;;;;22.67;11.83;;;;;;;5.44;100.00;95653.06;5138249;27;20484;-31
2021/12/10 05:03:05;;;;;;;32.77;17.83;;;;;;;5.45;99.47;95649.41;5138280;27;20430;-32
2021/12/10 05:05:34;;;;;;;25.03;14.23;;;;;;;5.29;99.25;95625.41;5138278;27;20972;-29
2021/12/10 05:08:01;;;;;;;24.40;12.50;;;;;;;5.38;99.22;95659.25;5138075;27;20535;-29
2021/12/10 05:10:28;;;;;;;22.47;12.70;;;;;;;5.28;99.33;95663.28;5138049;27;20453;-30
2021/12/10 05:12:58;;;;;;;18.90;10.87;;;;;;;5.29;98.67;95680.69;5138309;27;20444;-31
2021/12/10 05:15:28;;;;;;;13.80;9.07;;;;;;;5.23;98.13;95693.97;5138303;27;20441;-31
2021/12/10 05:17:57;;;;;;;20.83;10.27;;;;;;;5.15;98.01;95695.09;5138365;27;20425;-31
2021/12/10 05:20:31;;;;;;;17.07;10.77;;;;;;;5.11;98.54;95694.75;5138256;27;20452;-30
2021/12/10 05:22:58;;;;;;;18.20;9.70;;;;;;;5.04;97.31;95709.84;5137968;27;20931;-29
2021/12/10 05:25:28;;;;;;;16.17;11.93;;;;;;;5.02;98.10;95721.63;5137868;27;20441;-31
2021/12/10 05:27:56;;;;;;;22.10;9.80;;;;;;;5.01;97.79;95714.75;5137847;27;20444;-32
2021/12/10 05:30:28;;;;;;;15.83;9.90;;;;;;;5.05;97.48;95706.16;5137685;27;20441;-32
2021/12/10 05:32:56;;;;;;;17.20;10.57;;;;;;;5.01;97.09;95672.66;5137787;27;20434;-32
2021/12/10 05:35:23;;;;;;;17.27;11.23;;;;;;;4.92;97.40;95673.00;5137653;27;20955;-31
2021/12/10 05:37:51;;;;;;;27.60;13.67;;;;;;;4.74;98.10;95685.44;5137641;27;20451;-31
2021/12/10 05:40:18;;;;;;;28.77;17.77;;;;;;;4.69;98.50;95702.69;5135486;27;20443;-33
2021/12/10 05:42:47;;;;;;;19.20;11.63;;;;;;;4.51;98.26;95674.63;5135799;27;20464;-31
2021/12/10 05:45:16;;;;;;;17.03;9.90;;;;;;;4.60;98.20;95700.59;5135706;27;20449;-31
2021/12/10 05:47:46;;;;;;;22.77;10.10;;;;;;;4.51;98.05;95716.69;5135287;27;20441;-32
2021/12/10 05:50:15;;;;;;;16.27;8.53;;;;;;;4.46;98.30;95719.19;5135309;27;20864;-31
2021/12/10 05:52:43;;;;;;;11.80;7.77;;;;;;;4.45;98.02;95729.94;5134738;27;20441;-32
2021/12/10 05:55:11;;;;;;;45.87;22.53;;;;;;;4.50;98.20;95728.25;5135478;27;20468;-31
2021/12/10 05:57:39;;;;;;;14.20;10.13;;;;;;;4.48;96.70;95721.63;5135181;27;20452;-32
2021/12/10 06:00:10;;;;;;;30.20;20.30;;;;;;;4.38;97.55;95737.91;5135400;27;20448;-33
2021/12/10 06:02:39;;;;;;;22.30;11.60;;;;;;;4.32;96.30;95738.78;5135050;27;20469;-32
2021/12/10 06:05:09;;;;;;;11.13;7.90;;;;;;;4.24;96.46;95737.28;5134061;27;20437;-30
2021/12/10 06:07:38;;;;;;;16.93;10.27;;;;;;;4.17;98.78;95743.66;5134776;27;20461;-32
2021/12/10 06:10:07;;;;;;;24.37;12.43;;;;;;;4.08;99.49;95732.63;5134837;27;20438;-32
2021/12/10 06:12:34;;;;;;;26.53;10.97;;;;;;;4.09;100.00;95750.03;5134890;27;20441;-33
2021/12/10 06:15:02;;;;;;;15.40;8.83;;;;;;;4.14;100.00;95763.28;5134730;27;20802;-32
2021/12/10 06:17:29;;;;;;;14.83;9.70;;;;;;;4.14;100.00;95768.53;5135048;27;20783;-32
2021/12/10 06:19:56;;;;;;;14.10;8.20;;;;;;;4.10;100.00;95778.66;5134266;27;20445;-32
2021/12/10 06:22:25;;;;;;;18.90;10.37;;;;;;;4.05;99.73;95770.66;5134599;27;21012;-32
2021/12/10 06:24:52;;;;;;;20.73;9.00;;;;;;;4.07;100.00;95768.63;5134953;27;20441;-32
2021/12/10 06:27:20;;;;;;;12.90;8.37;;;;;;;4.08;99.70;95787.81;5134780;27;20437;-32
2021/12/10 06:29:47;;;;;;;14.17;7.40;;;;;;;4.04;98.37;95786.63;5134387;27;20477;-31
2021/12/10 06:32:14;;;;;;;18.10;8.40;;;;;;;4.01;99.38;95801.00;5133973;27;20433;-32
2021/12/10 06:34:42;;;;;;;10.90;6.87;;;;;;;4.09;99.94;95807.81;5134776;27;20530;-32
2021/12/10 06:37:09;;;;;;;18.90;11.47;;;;;;;4.17;100.00;95804.06;5134338;27;20442;-32
2021/12/10 06:39:38;;;;;;;24.33;11.20;;;;;;;4.23;99.90;95811.06;5134279;27;20445;-31
2021/12/10 06:42:06;;;;;;;24.47;11.97;;;;;;;4.22;99.90;95822.63;5134221;27;20489;-32
2021/12/10 06:44:33;;;;;;;45.03;25.53;;;;;;;4.19;100.00;95820.41;5133858;27;20441;-32
2021/12/10 06:47:05;;;;;;;20.97;12.80;;;;;;;4.12;100.00;95828.38;5134046;27;20448;-32
2021/12/10 06:49:33;;;;;;;24.23;14.30;;;;;;;4.03;100.00;95819.97;5134182;27;20821;-33
2021/12/10 06:52:01;;;;;;;24.57;13.17;;;;;;;4.06;100.00;95811.66;5134109;27;20996;-32
2021/12/10 06:54:29;;;;;;;18.07;9.30;;;;;;;4.05;100.00;95817.94;5134080;27;20870;-32
2021/12/10 06:56:58;;;;;;;30.57;15.40;;;;;;;4.03;100.00;95819.19;5133941;27;20452;-32
2021/12/10 06:59:26;;;;;;;36.03;18.47;;;;;;;3.94;100.00;95808.16;5133715;27;20437;-32
2021/12/10 07:01:54;;;;;;;29.63;15.37;;;;;;;4.02;100.00;95802.63;5133747;27;21065;-32
2021/12/10 07:04:22;;;;;;;26.47;15.40;;;;;;;4.02;100.00;95800.00;5134121;27;20449;-32
2021/12/10 07:06:50;;;;;;;20.77;11.43;;;;;;;4.00;100.00;95799.41;5133739;27;20466;-32
2021/12/10 07:09:20;;;;;;;29.50;16.67;;;;;;;3.92;100.00;95798.91;5133813;27;20445;-31
2021/12/10 07:11:48;;;;;;;14.20;9.17;;;;;;;3.79;100.00;95812.97;5133154;27;20457;-31
2021/12/10 07:14:18;;;;;;;14.67;9.40;;;;;;;3.77;100.00;95809.75;5133627;27;20533;-31
2021/12/10 07:16:46;;;;;;;13.33;8.07;;;;;;;3.77;100.00;95821.06;5133596;27;20445;-31
2021/12/10 07:19:14;;;;;;;10.87;8.40;;;;;;;3.79;100.00;95797.22;5133505;27;20494;-31
2021/12/10 07:21:44;;;;;;;17.10;9.73;;;;;;;3.96;100.00;95797.41;5133460;27;20485;-31
2021/12/10 07:24:14;;;;;;;16.40;12.80;;;;;;;4.01;100.00;95805.47;5132956;27;20448;-32
2021/12/10 07:26:42;;;;;;;21.80;12.10;;;;;;;4.02;100.00;95814.94;5133697;27;20438;-31
2021/12/10 07:29:10;;;;;;;26.40;15.60;;;;;;;4.08;100.00;95809.59;5133115;27;20830;-32
2021/12/10 07:31:41;;;;;;;47.17;24.57;;;;;;;4.16;100.00;95805.09;5133337;27;20441;-31
2021/12/10 07:34:09;;;;;;;39.97;25.83;;;;;;;4.15;100.00;95816.63;5133290;27;20464;-31
2021/12/10 07:36:38;;;;;;;38.17;21.93;;;;;;;4.20;100.00;95825.47;5133403;27;20956;-31
2021/12/10 07:39:06;;;;;;;34.13;20.07;;;;;;;4.25;100.00;95832.69;5132777;27;20995;-31
2021/12/10 07:41:34;;;;;;;33.60;15.53;;;;;;;4.09;100.00;95789.41;5132957;27;21034;-31
2021/12/10 07:44:01;;;;;;;27.80;17.70;;;;;;;4.31;100.00;95805.53;5133020;27;20444;-30
2021/12/10 07:46:29;;;;;;;26.97;13.43;;;;;;;4.33;100.00;95771.94;5133328;27;20944;-32
2021/12/10 07:48:58;;;;;;;45.33;21.00;;;;;;;4.33;100.00;95784.28;5132991;27;20528;-32
2021/12/10 07:51:28;;;;;;;27.93;17.30;;;;;;;4.36;100.00;95810.13;5132490;27;20451;-32
2021/12/10 07:53:57;;;;;;;35.23;18.37;;;;;;;4.40;100.00;95827.06;5133130;27;20445;-30
2021/12/10 07:56:26;;;;;;;28.90;17.47;;;;;;;4.37;100.00;95830.94;5132828;27;20445;-31
2021/12/10 07:58:55;;;;;;;35.67;21.10;;;;;;;4.43;100.00;95827.44;5132750;27;20928;-32
2021/12/10 08:01:26;;;;;;;47.17;24.07;;;;;;;4.54;100.00;95822.44;5132970;27;20723;-32
2021/12/10 08:03:55;;;;;;;41.03;21.47;;;;;;;4.67;100.00;95825.69;5132249;27;20429;-32
2021/12/10 08:06:25;;;;;;;49.80;24.50;;;;;;;4.77;100.00;95819.91;5132979;27;20449;-32
2021/12/10 08:08:52;;;;;;;30.33;18.53;;;;;;;4.82;100.00;95838.47;5132563;27;20917;-31
2021/12/10 08:11:20;;;;;;;42.50;21.10;;;;;;;4.90;100.00;95839.97;5132558;27;20806;-32
2021/12/10 08:13:49;;;;;;;36.57;20.13;;;;;;;4.82;100.00;95822.69;5132519;27;20450;-32
2021/12/10 08:16:17;;;;;;;39.20;25.27;;;;;;;5.06;100.00;95847.22;5132071;27;20816;-31
2021/12/10 08:18:45;;;;;;;28.27;19.90;;;;;;;5.15;100.00;95839.81;5132784;27;20948;-32
2021/12/10 08:21:13;;;;;;;26.73;15.47;;;;;;;5.05;100.00;95821.94;5132373;27;20437;-32
2021/12/10 08:23:42;;;;;;;22.07;15.03;;;;;;;5.12;100.00;95819.22;5132808;27;20441;-31
2021/12/10 08:26:10;;;;;;;20.90;13.40;;;;;;;5.35;100.00;95836.88;5132124;27;20444;-30
2021/12/10 08:28:38;;;;;;;23.73;14.30;;;;;;;5.40;100.00;95826.50;5132295;27;20534;-31
2021/12/10 08:31:06;;;;;;;28.53;14.77;;;;;;;5.44;100.00;95829.44;5131953;27;20802;-33
2021/12/10 08:33:34;;;;;;;29.43;18.70;;;;;;;5.50;100.00;95825.91;5132620;27;20499;-32
2021/12/10 08:36:07;;;;;;;40.83;22.10;;;;;;;5.56;100.00;95826.84;5132272;27;20437;-32
2021/12/10 08:38:34;;;;;;;29.43;18.57;;;;;;;5.42;100.00;95810.44;5132612;27;20426;-32
2021/12/10 08:41:07;;;;;;;30.83;21.10;;;;;;;5.65;100.00;95842.06;5132633;27;20441;-32
2021/12/10 08:43:36;;;;;;;46.17;19.70;;;;;;;5.69;100.00;95852.94;5131864;27;21079;-32
2021/12/10 08:46:05;;;;;;;37.63;20.37;;;;;;;5.72;100.00;95848.03;5132332;27;20935;-33
2021/12/10 08:48:34;;;;;;;57.53;25.33;;;;;;;5.73;100.00;95852.25;5132235;27;21139;-33
2021/12/10 08:51:15;;;;;;;23.50;16.37;;;;;;;5.78;100.00;95848.94;5132543;27;20441;-32
2021/12/10 08:53:42;;;;;;;22.63;13.40;;;;;;;5.82;100.00;95846.66;5132271;27;20994;-33
2021/12/10 08:56:11;;;;;;;47.83;25.40;;;;;;;5.89;100.00;95826.25;5131868;27;20952;-32
2021/12/10 08:58:39;;;;;;;38.60;20.50;;;;;;;5.97;100.00;95822.53;5132121;27;20444;-32
2021/12/10 09:01:09;;;;;;;38.67;21.30;;;;;;;6.08;100.00;95824.34;5132089;27;20437;-32
2021/12/10 09:03:37;;;;;;;47.67;22.20;;;;;;;6.18;100.00;95800.84;5132348;27;20484;-32
2021/12/10 09:06:06;;;;;;;32.47;18.83;;;;;;;6.19;100.00;95810.34;5132066;27;20451;-32
2021/12/10 09:08:34;;;;;;;36.70;23.83;;;;;;;6.30;100.00;95784.97;5131600;27;20441;-32
2021/12/10 09:11:01;;;;;;;26.53;19.10;;;;;;;6.34;100.00;95804.56;5131987;27;20437;-32
2021/12/10 09:13:31;;;;;;;46.00;28.30;;;;;;;6.47;100.00;95792.97;5132032;27;20445;-32
2021/12/10 09:16:01;;;;;;;28.27;16.30;;;;;;;6.53;100.00;95784.13;5132539;27;20437;-33
2021/12/10 09:18:29;;;;;;;31.40;17.97;;;;;;;6.52;100.00;95812.34;5132255;27;20555;-32
2021/12/10 09:21:03;;;;;;;35.17;16.57;;;;;;;6.58;100.00;95800.03;5131903;27;20947;-32
2021/12/10 09:23:32;;;;;;;15.93;10.67;;;;;;;6.44;100.00;95770.50;5131786;27;20485;-32
2021/12/10 09:26:03;;;;;;;12.90;9.87;;;;;;;6.55;100.00;95788.13;5131838;27;20536;-32
2021/12/10 09:28:32;;;;;;;21.77;10.67;;;;;;;6.60;100.00;95790.03;5131651;27;20473;-32
2021/12/10 09:31:01;;;;;;;14.23;9.13;;;;;;;6.59;100.00;95791.09;5132311;27;20793;-33
2021/12/10 09:33:29;;;;;;;21.60;11.40;;;;;;;6.56;100.00;95773.13;5131806;27;20445;-33
2021/12/10 09:35:57;;;;;;;20.00;12.77;;;;;;;6.61;100.00;95753.94;5131389;27;20824;-33
2021/12/10 09:38:25;;;;;;;16.53;10.83;;;;;;;6.67;100.00;95748.53;5131791;27;21007;-33
2021/12/10 09:41:00;;;;;;;23.07;12.40;;;;;;;6.60;100.00;95741.78;5135876;27;20449;-33
2021/12/10 09:43:30;;;;;;;11.43;9.20;;;;;;;6.49;100.00;95752.13;5135748;27;20507;-33
2021/12/10 09:46:00;;;;;;;13.83;8.20;;;;;;;6.48;100.00;95744.47;5135372;27;20441;-31
2021/12/10 09:48:29;;;;;;;15.20;9.70;;;;;;;5.98;100.00;95682.66;5134874;27;20417;-32
2021/12/10 09:50:59;;;;;;;22.17;12.10;;;;;;;6.35;100.00;95756.09;5135340;27;20437;-31
2021/12/10 09:53:30;;;;;;;20.23;11.40;;;;;;;6.37;100.00;95780.41;5135169;27;20430;-31
2021/12/10 09:55:59;;;;;;;17.57;11.80;;;;;;;6.39;100.00;95770.41;5135185;27;20440;-29
2021/12/10 09:58:27;;;;;;;14.27;9.70;;;;;;;6.35;100.00;95762.16;5135097;27;20452;-31
2021/12/10 10:00:56;;;;;;;14.80;11.43;;;;;;;6.33;100.00;95766.09;5134898;27;20797;-32
2021/12/10 10:03:28;;;;;;;17.20;10.60;;;;;;;6.42;100.00;95777.06;5135305;27;20485;-32
2021/12/10 10:05:56;;;;;;;24.00;14.20;;;;;;;6.41;100.00;95781.53;5135501;27;20426;-32
2021/12/10 10:08:26;;;;;;;23.77;14.00;;;;;;;6.45;100.00;95792.41;5135330;27;20437;-33
2021/12/10 10:10:58;;;;;;;15.93;9.77;;;;;;;6.52;100.00;95778.06;5134913;27;20936;-31
2021/12/10 10:13:28;;;;;;;56.03;20.47;;;;;;;6.59;100.00;95779.75;5134912;27;20804;-31
2021/12/10 10:15:58;;;;;;;42.57;17.70;;;;;;;6.60;100.00;95783.97;5134851;27;20441;-32
2021/12/10 10:18:28;;;;;;;42.47;19.40;;;;;;;6.62;100.00;95784.53;5134813;27;20446;-32
2021/12/10 10:20:58;;;;;;;19.37;12.20;;;;;;;6.62;100.00;95755.53;5134713;27;20928;-31
2021/12/10 10:23:28;;;;;;;12.80;9.73;;;;;;;6.45;100.00;95745.72;5134623;27;20859;-32
2021/12/10 10:25:57;;;;;;;37.93;23.23;;;;;;;6.60;100.00;95789.25;5134617;27;20445;-32
2021/12/10 10:40:56;;;;;;;26.00;14.83;;;;;;;6.82;100.00;95763.00;5171228;27;20542;-37
2021/12/10 10:43:25;;;;;;;36.73;21.90;;;;;;;6.82;100.00;95755.91;5170986;27;20783;-37
2021/12/10 10:45:53;;;;;;;23.43;15.33;;;;;;;6.81;100.00;95769.31;5171019;27;20435;-38
2021/12/10 10:48:21;;;;;;;19.83;12.00;;;;;;;6.71;100.00;95754.94;5171020;27;20451;-38
2021/12/10 10:50:52;;;;;;;18.53;11.00;;;;;;;6.63;100.00;95749.22;5170900;27;20886;-38
2021/12/10 10:53:22;;;;;;;24.97;15.27;;;;;;;6.63;100.00;95746.59;5170885;27;20431;-37
2021/12/10 10:55:54;;;;;;;14.17;9.80;;;;;;;6.68;100.00;95759.88;5170413;27;20443;-38
2021/12/10 10:58:25;;;;;;;17.77;9.80;;;;;;;6.63;100.00;95738.69;5170819;27;20467;-38
2021/12/10 11:01:00;;;;;;;12.70;9.60;;;;;;;6.71;100.00;95740.91;5170920;27;20428;-38
2021/12/10 11:03:36;;;;;;;14.90;9.77;;;;;;;6.69;100.00;95732.44;5170794;27;20471;-37
2021/12/10 11:06:06;;;;;;;17.30;10.20;;;;;;;6.68;100.00;95728.22;5170807;27;20918;-37
2021/12/10 11:08:37;;;;;;;15.43;11.17;;;;;;;6.68;100.00;95736.13;5170923;27;20446;-38
2021/12/10 11:11:15;;;;;;;23.00;11.60;;;;;;;6.72;100.00;95739.91;5170691;27;20424;-38
2021/12/10 11:13:44;;;;;;;17.03;10.80;;;;;;;6.66;100.00;95735.56;5170966;27;20500;-38
2021/12/10 11:16:14;;;;;;;17.60;9.43;;;;;;;6.61;100.00;95732.84;5170577;27;20871;-38
2021/12/10 11:18:48;;;;;;;16.73;11.03;;;;;;;6.55;100.00;95730.09;5170711;27;20962;-39
2021/12/10 11:21:18;;;;;;;14.33;9.50;;;;;;;6.64;100.00;95742.91;5170533;27;20451;-37
2021/12/10 11:23:46;;;;;;;18.50;10.00;;;;;;;6.62;100.00;95751.06;5170647;27;20430;-38
2021/12/10 11:26:15;;;;;;;29.40;13.23;;;;;;;6.60;100.00;95744.41;5170356;27;20495;-37
2021/12/10 11:28:43;;;;;;;17.60;11.47;;;;;;;6.61;100.00;95743.41;5170295;27;21101;-38
2021/12/10 11:31:13;;;;;;;19.73;10.67;;;;;;;6.55;100.00;95722.19;5170248;27;20471;-38
2021/12/10 11:33:45;;;;;;;23.83;12.30;;;;;;;6.50;100.00;95711.56;5170549;27;20844;-37
2021/12/10 11:36:16;;;;;;;20.53;11.27;;;;;;;6.48;100.00;95707.56;5172188;27;20434;-37
2021/12/10 11:38:46;;;;;;;26.97;15.37;;;;;;;6.48;100.00;95697.00;5171793;27;20499;-38
2021/12/10 11:41:17;;;;;;;32.57;14.70;;;;;;;6.53;100.00;95689.97;5161241;27;20444;-38
2021/12/10 11:44:06;;;;;;;26.70;16.43;;;;;;;6.61;100.00;95669.53;5158406;27;20507;-37
2021/12/10 11:46:47;;;;;;;30.53;14.37;;;;;;;6.66;100.00;95664.34;5158066;27;20434;-38
2021/12/10 11:49:22;;;;;;;32.83;17.60;;;;;;;6.75;100.00;95670.81;5158295;27;20427;-37
2021/12/10 11:51:56;;;;;;;55.83;24.70;;;;;;;6.80;100.00;95657.72;5158057;27;20423;-38